sensor_id;sensor_type;location;lat;lon;timestamp;P1;durP1;ratioP1;P2;durP2;ratioP2
6953;SDS011;3516;47.980;8.808;2023-03-01T04:53:09;27.90;;;17.45;;
6953;SDS011;3516;47.980;8.808;2023-03-01T04:55:36;29.30;;;16.80;;
6953;SDS011;3516;47.980;8.808;2023-03-01T04:58:03;29.48;;;17.02;;
6953;SDS011;3516;47.980;8.808;2023-03-01T05:00:30;29.45;;;16.58;;
6953;SDS011;3516;47.980;8.808;2023-03-01T05:02:59;29.63;;;17.30;;
6953;SDS011;3516;47.980;8.808;2023-03-01T05:05:27;28.08;;;17.20;;
6953;SDS011;3516;47.980;8.808;2023-03-01T05:07:55;31.00;;;17.90;;
6953;SDS011;3516;47.980;8.808;2023-03-01T05:10:24;27.70;;;17.20;;
6953;SDS011;3516;47.980;8.808;2023-03-01T05:12:51;23.73;;;16.40;;
6953;SDS011;3516;47.980;8.808;2023-03-01T05:15:19;26.70;;;17.40;;
6953;SDS011;3516;47.980;8.808;2023-03-01T05:17:47;32.30;;;17.90;;
6953;SDS011;3516;47.980;8.808;2023-03-01T05:20:14;28.33;;;17.27;;
6953;SDS011;3516;47.980;8.808;2023-03-01T05:22:41;25.40;;;16.70;;
6953;SDS011;3516;47.980;8.808;2023-03-01T05:25:08;24.42;;;16.73;;
6953;SDS011;3516;47.980;8.808;2023-03-01T05:27:37;27.40;;;16.38;;
6953;SDS011;3516;47.980;8.808;2023-03-01T05:30:04;30.27;;;17.63;;
6953;SDS011;3516;47.980;8.808;2023-03-01T05:32:39;32.83;;;18.92;;
6953;SDS011;3516;47.980;8.808;2023-03-01T05:35:06;28.17;;;17.05;;
6953;SDS011;3516;47.980;8.808;2023-03-01T05:37:33;29.10;;;17.67;;
6953;SDS011;3516;47.980;8.808;2023-03-01T05:40:00;29.63;;;18.05;;
6953;SDS011;3516;47.980;8.808;2023-03-01T05:42:30;27.50;;;17.05;;
6953;SDS011;3516;47.980;8.808;2023-03-01T05:44:58;30.05;;;17.52;;
6953;SDS011;3516;47.980;8.808;2023-03-01T05:47:25;26.73;;;16.85;;
6953;SDS011;3516;47.980;8.808;2023-03-01T05:49:52;36.10;;;19.95;;
6953;SDS011;3516;47.980;8.808;2023-03-01T05:52:19;32.28;;;19.15;;
6953;SDS011;3516;47.980;8.808;2023-03-01T05:54:47;30.33;;;18.70;;
6953;SDS011;3516;47.980;8.808;2023-03-01T05:57:14;30.48;;;18.58;;
6953;SDS011;3516;47.980;8.808;2023-03-01T05:59:41;29.48;;;18.55;;
6953;SDS011;3516;47.980;8.808;2023-03-01T06:02:09;29.05;;;17.75;;
6953;SDS011;3516;47.980;8.808;2023-03-01T06:04:37;29.67;;;18.13;;
6953;SDS011;3516;47.980;8.808;2023-03-01T06:07:04;26.75;;;17.95;;
6953;SDS011;3516;47.980;8.808;2023-03-01T06:09:31;28.65;;;18.13;;
6953;SDS011;3516;47.980;8.808;2023-03-01T06:11:58;31.88;;;18.75;;
6953;SDS011;3516;47.980;8.808;2023-03-01T06:14:25;32.08;;;19.83;;
6953;SDS011;3516;47.980;8.808;2023-03-01T06:16:52;32.97;;;18.58;;
6953;SDS011;3516;47.980;8.808;2023-03-01T06:19:20;33.22;;;18.60;;
6953;SDS011;3516;47.980;8.808;2023-03-01T06:21:47;31.13;;;19.10;;
6953;SDS011;3516;47.980;8.808;2023-03-01T06:24:14;32.65;;;18.50;;
6953;SDS011;3516;47.980;8.808;2023-03-01T06:26:41;31.25;;;18.95;;
6953;SDS011;3516;47.980;8.808;2023-03-01T06:29:08;36.17;;;18.13;;
6953;SDS011;3516;47.980;8.808;2023-03-01T06:31:35;30.33;;;18.73;;
6953;SDS011;3516;47.980;8.808;2023-03-01T06:34:02;33.72;;;18.85;;
6953;SDS011;3516;47.980;8.808;2023-03-01T06:36:31;29.92;;;17.80;;
6953;SDS011;3516;47.980;8.808;2023-03-01T06:38:58;34.85;;;18.77;;
6953;SDS011;3516;47.980;8.808;2023-03-01T06:41:25;28.77;;;17.73;;
6953;SDS011;3516;47.980;8.808;2023-03-01T06:43:52;29.85;;;17.38;;
6953;SDS011;3516;47.980;8.808;2023-03-01T06:46:19;28.25;;;18.15;;
6953;SDS011;3516;47.980;8.808;2023-03-01T06:48:47;34.28;;;19.70;;
6953;SDS011;3516;47.980;8.808;2023-03-01T06:51:14;33.10;;;21.00;;
6953;SDS011;3516;47.980;8.808;2023-03-01T06:53:42;32.00;;;18.58;;
6953;SDS011;3516;47.980;8.808;2023-03-01T06:56:09;29.50;;;18.25;;
6953;SDS011;3516;47.980;8.808;2023-03-01T06:58:36;31.75;;;18.48;;
6953;SDS011;3516;47.980;8.808;2023-03-01T07:01:05;30.35;;;19.50;;
6953;SDS011;3516;47.980;8.808;2023-03-01T07:03:32;29.42;;;18.10;;
6953;SDS011;3516;47.980;8.808;2023-03-01T07:05:59;26.75;;;17.08;;
6953;SDS011;3516;47.980;8.808;2023-03-01T07:08:26;30.30;;;18.15;;
6953;SDS011;3516;47.980;8.808;2023-03-01T07:10:57;29.50;;;17.90;;
6953;SDS011;3516;47.980;8.808;2023-03-01T07:13:27;30.42;;;17.35;;
6953;SDS011;3516;47.980;8.808;2023-03-01T07:15:54;34.75;;;18.10;;
6953;SDS011;3516;47.980;8.808;2023-03-01T07:18:21;26.83;;;17.35;;
6953;SDS011;3516;47.980;8.808;2023-03-01T07:20:48;30.02;;;17.88;;
6953;SDS011;3516;47.980;8.808;2023-03-01T07:23:15;29.75;;;18.02;;
6953;SDS011;3516;47.980;8.808;2023-03-01T07:25:42;26.10;;;17.23;;
6953;SDS011;3516;47.980;8.808;2023-03-01T07:28:10;34.00;;;19.27;;
6953;SDS011;3516;47.980;8.808;2023-03-01T07:30:36;31.00;;;17.95;;
6953;SDS011;3516;47.980;8.808;2023-03-01T07:33:03;30.73;;;18.42;;
6953;SDS011;3516;47.980;8.808;2023-03-01T07:35:30;33.30;;;18.30;;
6953;SDS011;3516;47.980;8.808;2023-03-01T07:37:58;32.50;;;18.42;;
6953;SDS011;3516;47.980;8.808;2023-03-01T07:40:25;31.85;;;17.73;;
6953;SDS011;3516;47.980;8.808;2023-03-01T07:42:54;30.30;;;17.75;;
6953;SDS011;3516;47.980;8.808;2023-03-01T07:45:23;28.25;;;18.00;;
6953;SDS011;3516;47.980;8.808;2023-03-01T07:47:50;30.48;;;18.52;;
6953;SDS011;3516;47.980;8.808;2023-03-01T07:50:17;31.25;;;17.95;;
6953;SDS011;3516;47.980;8.808;2023-03-01T07:52:44;29.75;;;17.70;;
6953;SDS011;3516;47.980;8.808;2023-03-01T07:55:12;29.30;;;17.63;;
6953;SDS011;3516;47.980;8.808;2023-03-01T07:57:39;31.48;;;17.70;;
6953;SDS011;3516;47.980;8.808;2023-03-01T08:00:06;24.67;;;16.67;;
6953;SDS011;3516;47.980;8.808;2023-03-01T08:02:37;28.50;;;17.40;;
6953;SDS011;3516;47.980;8.808;2023-03-01T08:05:05;30.10;;;18.02;;
6953;SDS011;3516;47.980;8.808;2023-03-01T08:07:32;29.63;;;17.38;;
6953;SDS011;3516;47.980;8.808;2023-03-01T08:09:59;32.05;;;16.65;;
6953;SDS011;3516;47.980;8.808;2023-03-01T08:12:26;30.48;;;18.20;;
6953;SDS011;3516;47.980;8.808;2023-03-01T08:14:53;27.77;;;17.48;;
6953;SDS011;3516;47.980;8.808;2023-03-01T08:17:20;27.30;;;17.95;;
6953;SDS011;3516;47.980;8.808;2023-03-01T08:19:48;32.10;;;17.65;;
6953;SDS011;3516;47.980;8.808;2023-03-01T08:22:15;27.20;;;17.55;;
6953;SDS011;3516;47.980;8.808;2023-03-01T08:24:41;31.42;;;18.52;;
6953;SDS011;3516;47.980;8.808;2023-03-01T08:27:08;31.80;;;17.98;;
6953;SDS011;3516;47.980;8.808;2023-03-01T08:29:37;30.98;;;17.90;;
6953;SDS011;3516;47.980;8.808;2023-03-01T08:32:04;29.45;;;16.67;;
6953;SDS011;3516;47.980;8.808;2023-03-01T08:34:30;32.10;;;18.02;;
6953;SDS011;3516;47.980;8.808;2023-03-01T08:36:58;26.80;;;17.88;;
6953;SDS011;3516;47.980;8.808;2023-03-01T08:39:25;27.60;;;16.80;;
6953;SDS011;3516;47.980;8.808;2023-03-01T08:41:52;25.45;;;16.77;;
6953;SDS011;3516;47.980;8.808;2023-03-01T08:44:19;25.75;;;16.85;;
6953;SDS011;3516;47.980;8.808;2023-03-01T08:46:46;31.77;;;17.67;;
6953;SDS011;3516;47.980;8.808;2023-03-01T08:49:15;29.35;;;18.58;;
6953;SDS011;3516;47.980;8.808;2023-03-01T08:51:43;29.17;;;17.25;;
6953;SDS011;3516;47.980;8.808;2023-03-01T08:54:13;32.45;;;18.70;;
6953;SDS011;3516;47.980;8.808;2023-03-01T08:56:41;27.40;;;16.92;;
6953;SDS011;3516;47.980;8.808;2023-03-01T08:59:08;28.67;;;17.17;;
6953;SDS011;3516;47.980;8.808;2023-03-01T09:01:36;29.55;;;16.95;;
6953;SDS011;3516;47.980;8.808;2023-03-01T09:04:03;28.23;;;17.38;;
6953;SDS011;3516;47.980;8.808;2023-03-01T09:06:30;33.25;;;18.40;;
6953;SDS011;3516;47.980;8.808;2023-03-01T09:08:58;29.45;;;16.73;;
6953;SDS011;3516;47.980;8.808;2023-03-01T09:11:26;33.95;;;16.65;;
6953;SDS011;3516;47.980;8.808;2023-03-01T09:13:54;29.50;;;18.10;;
6953;SDS011;3516;47.980;8.808;2023-03-01T09:16:21;27.20;;;16.48;;
6953;SDS011;3516;47.980;8.808;2023-03-01T09:18:49;27.08;;;16.55;;
6953;SDS011;3516;47.980;8.808;2023-03-01T09:21:17;26.88;;;17.17;;
6953;SDS011;3516;47.980;8.808;2023-03-01T09:23:46;23.35;;;15.25;;
6953;SDS011;3516;47.980;8.808;2023-03-01T09:26:14;28.23;;;16.65;;
6953;SDS011;3516;47.980;8.808;2023-03-01T09:28:45;27.05;;;15.80;;
6953;SDS011;3516;47.980;8.808;2023-03-01T09:31:13;25.95;;;16.27;;
6953;SDS011;3516;47.980;8.808;2023-03-01T09:33:40;27.17;;;16.85;;
6953;SDS011;3516;47.980;8.808;2023-03-01T09:36:10;32.10;;;17.83;;
6953;SDS011;3516;47.980;8.808;2023-03-01T09:38:38;30.13;;;16.92;;
6953;SDS011;3516;47.980;8.808;2023-03-01T09:41:09;27.27;;;16.50;;
6953;SDS011;3516;47.980;8.808;2023-03-01T09:43:39;29.20;;;16.63;;
6953;SDS011;3516;47.980;8.808;2023-03-01T09:46:14;32.03;;;17.25;;
6953;SDS011;3516;47.980;8.808;2023-03-01T09:48:42;28.95;;;17.02;;
6953;SDS011;3516;47.980;8.808;2023-03-01T09:51:12;28.75;;;15.95;;
6953;SDS011;3516;47.980;8.808;2023-03-01T09:53:44;28.35;;;17.30;;
6953;SDS011;3516;47.980;8.808;2023-03-01T09:56:12;26.15;;;16.08;;
6953;SDS011;3516;47.980;8.808;2023-03-01T09:58:47;25.50;;;16.15;;
6953;SDS011;3516;47.980;8.808;2023-03-01T10:01:26;26.95;;;16.50;;
6953;SDS011;3516;47.980;8.808;2023-03-01T10:04:00;27.00;;;16.25;;
6953;SDS011;3516;47.980;8.808;2023-03-01T10:06:37;25.60;;;16.20;;
6953;SDS011;3516;47.980;8.808;2023-03-01T10:09:07;32.65;;;18.17;;
6953;SDS011;3516;47.980;8.808;2023-03-01T10:11:41;27.55;;;15.52;;
6953;SDS011;3516;47.980;8.808;2023-03-01T10:14:13;28.17;;;16.85;;
6953;SDS011;3516;47.980;8.808;2023-03-01T10:16:51;25.75;;;16.50;;
6953;SDS011;3516;47.980;8.808;2023-03-01T10:19:24;26.85;;;17.20;;
6953;SDS011;3516;47.980;8.808;2023-03-01T10:21:56;30.27;;;17.95;;
6953;SDS011;3516;47.980;8.808;2023-03-01T10:24:28;28.90;;;16.67;;
6953;SDS011;3516;47.980;8.808;2023-03-01T10:27:01;29.20;;;17.45;;
6953;SDS011;3516;47.980;8.808;2023-03-01T10:29:34;26.45;;;15.15;;
6953;SDS011;3516;47.980;8.808;2023-03-01T10:32:06;27.25;;;15.73;;
6953;SDS011;3516;47.980;8.808;2023-03-01T10:34:36;29.40;;;16.33;;
6953;SDS011;3516;47.980;8.808;2023-03-01T10:37:08;26.38;;;15.95;;
6953;SDS011;3516;47.980;8.808;2023-03-01T10:39:37;27.50;;;16.42;;
6953;SDS011;3516;47.980;8.808;2023-03-01T10:42:23;24.52;;;16.35;;
6953;SDS011;3516;47.980;8.808;2023-03-01T10:44:53;31.60;;;17.27;;
6953;SDS011;3516;47.980;8.808;2023-03-01T10:47:22;29.50;;;14.23;;
6953;SDS011;3516;47.980;8.808;2023-03-01T10:49:51;27.15;;;16.58;;
6953;SDS011;3516;47.980;8.808;2023-03-01T10:52:23;25.30;;;15.00;;
6953;SDS011;3516;47.980;8.808;2023-03-01T10:54:52;25.05;;;14.85;;
6953;SDS011;3516;47.980;8.808;2023-03-01T10:57:31;26.73;;;16.08;;
6953;SDS011;3516;47.980;8.808;2023-03-01T11:00:14;22.73;;;13.85;;
6953;SDS011;3516;47.980;8.808;2023-03-01T11:02:49;27.85;;;16.10;;
6953;SDS011;3516;47.980;8.808;2023-03-01T11:05:21;25.40;;;15.93;;
6953;SDS011;3516;47.980;8.808;2023-03-01T11:07:50;29.13;;;16.38;;
6953;SDS011;3516;47.980;8.808;2023-03-01T11:10:19;26.08;;;15.00;;
6953;SDS011;3516;47.980;8.808;2023-03-01T11:12:47;25.30;;;15.40;;
6953;SDS011;3516;47.980;8.808;2023-03-01T11:15:25;25.70;;;16.00;;
6953;SDS011;3516;47.980;8.808;2023-03-01T11:17:54;28.92;;;16.02;;
6953;SDS011;3516;47.980;8.808;2023-03-01T11:20:27;20.13;;;14.65;;
6953;SDS011;3516;47.980;8.808;2023-03-01T11:22:58;28.55;;;16.60;;
6953;SDS011;3516;47.980;8.808;2023-03-01T11:25:29;27.13;;;15.52;;
6953;SDS011;3516;47.980;8.808;2023-03-01T11:28:01;27.48;;;16.90;;
6953;SDS011;3516;47.980;8.808;2023-03-01T11:30:32;28.35;;;16.13;;
6953;SDS011;3516;47.980;8.808;2023-03-01T11:33:08;26.38;;;15.75;;
6953;SDS011;3516;47.980;8.808;2023-03-01T11:35:42;27.17;;;16.30;;
6953;SDS011;3516;47.980;8.808;2023-03-01T11:38:17;32.42;;;17.23;;
6953;SDS011;3516;47.980;8.808;2023-03-01T11:40:49;27.48;;;16.67;;
6953;SDS011;3516;47.980;8.808;2023-03-01T11:43:20;26.70;;;16.35;;
6953;SDS011;3516;47.980;8.808;2023-03-01T11:45:58;23.90;;;15.95;;
6953;SDS011;3516;47.980;8.808;2023-03-01T11:48:50;26.98;;;16.58;;
6953;SDS011;3516;47.980;8.808;2023-03-01T11:51:25;28.50;;;16.25;;
6953;SDS011;3516;47.980;8.808;2023-03-01T11:54:06;27.67;;;17.35;;
6953;SDS011;3516;47.980;8.808;2023-03-01T11:56:41;27.15;;;15.57;;
6953;SDS011;3516;47.980;8.808;2023-03-01T11:59:20;28.55;;;17.63;;
6953;SDS011;3516;47.980;8.808;2023-03-01T12:05:12;28.85;;;17.88;;
6953;SDS011;3516;47.980;8.808;2023-03-01T12:07:55;26.02;;;16.33;;
6953;SDS011;3516;47.980;8.808;2023-03-01T12:10:28;28.35;;;16.70;;
6953;SDS011;3516;47.980;8.808;2023-03-01T12:13:15;30.92;;;15.93;;
6953;SDS011;3516;47.980;8.808;2023-03-01T12:16:10;26.33;;;16.60;;
6953;SDS011;3516;47.980;8.808;2023-03-01T12:18:50;26.02;;;15.98;;
6953;SDS011;3516;47.980;8.808;2023-03-01T12:21:34;30.38;;;17.27;;
6953;SDS011;3516;47.980;8.808;2023-03-01T12:27:13;26.88;;;16.58;;
6953;SDS011;3516;47.980;8.808;2023-03-01T12:29:51;30.77;;;17.08;;
6953;SDS011;3516;47.980;8.808;2023-03-01T12:32:25;31.60;;;17.63;;
6953;SDS011;3516;47.980;8.808;2023-03-01T12:37:56;33.00;;;17.45;;
6953;SDS011;3516;47.980;8.808;2023-03-01T12:40:39;33.22;;;18.27;;
6953;SDS011;3516;47.980;8.808;2023-03-01T12:43:32;29.15;;;17.33;;
6953;SDS011;3516;47.980;8.808;2023-03-01T12:46:13;27.08;;;17.48;;
6953;SDS011;3516;47.980;8.808;2023-03-01T12:48:49;26.98;;;17.45;;
6953;SDS011;3516;47.980;8.808;2023-03-01T12:51:23;27.38;;;17.30;;
6953;SDS011;3516;47.980;8.808;2023-03-01T12:53:54;28.50;;;16.23;;
6953;SDS011;3516;47.980;8.808;2023-03-01T12:56:24;31.85;;;17.48;;
6953;SDS011;3516;47.980;8.808;2023-03-01T12:58:55;32.10;;;19.63;;
6953;SDS011;3516;47.980;8.808;2023-03-01T13:01:33;34.90;;;17.77;;
6953;SDS011;3516;47.980;8.808;2023-03-01T13:07:02;22.77;;;15.48;;
6953;SDS011;3516;47.980;8.808;2023-03-01T13:09:39;27.65;;;16.60;;
6953;SDS011;3516;47.980;8.808;2023-03-01T13:15:28;28.38;;;16.83;;
6953;SDS011;3516;47.980;8.808;2023-03-01T13:18:00;29.02;;;16.80;;
6953;SDS011;3516;47.980;8.808;2023-03-01T13:20:33;23.33;;;15.57;;
6953;SDS011;3516;47.980;8.808;2023-03-01T13:23:11;28.85;;;16.65;;
6953;SDS011;3516;47.980;8.808;2023-03-01T13:26:01;29.77;;;17.55;;
6953;SDS011;3516;47.980;8.808;2023-03-01T13:28:53;29.65;;;16.25;;
6953;SDS011;3516;47.980;8.808;2023-03-01T13:34:39;31.15;;;17.08;;
6953;SDS011;3516;47.980;8.808;2023-03-01T13:37:20;26.63;;;16.35;;
6953;SDS011;3516;47.980;8.808;2023-03-01T13:39:54;29.33;;;16.02;;
6953;SDS011;3516;47.980;8.808;2023-03-01T13:42:32;32.22;;;16.40;;
6953;SDS011;3516;47.980;8.808;2023-03-01T13:45:05;27.75;;;17.33;;
6953;SDS011;3516;47.980;8.808;2023-03-01T13:47:47;29.80;;;17.15;;
6953;SDS011;3516;47.980;8.808;2023-03-01T13:50:18;28.05;;;16.50;;
6953;SDS011;3516;47.980;8.808;2023-03-01T13:52:48;27.27;;;16.92;;
6953;SDS011;3516;47.980;8.808;2023-03-01T13:55:19;28.73;;;16.58;;
6953;SDS011;3516;47.980;8.808;2023-03-01T13:57:53;24.35;;;15.05;;
6953;SDS011;3516;47.980;8.808;2023-03-01T14:00:35;23.83;;;15.65;;
6953;SDS011;3516;47.980;8.808;2023-03-01T14:03:03;25.70;;;15.63;;
6953;SDS011;3516;47.980;8.808;2023-03-01T14:05:32;22.80;;;15.55;;
6953;SDS011;3516;47.980;8.808;2023-03-01T14:08:00;31.08;;;16.58;;
6953;SDS011;3516;47.980;8.808;2023-03-01T14:10:35;27.42;;;16.27;;
6953;SDS011;3516;47.980;8.808;2023-03-01T14:13:17;33.47;;;18.70;;
6953;SDS011;3516;47.980;8.808;2023-03-01T14:16:00;26.33;;;17.05;;
6953;SDS011;3516;47.980;8.808;2023-03-01T14:18:39;26.50;;;15.57;;
6953;SDS011;3516;47.980;8.808;2023-03-01T14:21:13;32.40;;;17.90;;
6953;SDS011;3516;47.980;8.808;2023-03-01T14:23:41;28.05;;;16.75;;
6953;SDS011;3516;47.980;8.808;2023-03-01T14:26:08;25.25;;;16.38;;
6953;SDS011;3516;47.980;8.808;2023-03-01T14:28:38;26.33;;;17.15;;
6953;SDS011;3516;47.980;8.808;2023-03-01T14:34:01;28.23;;;16.05;;
6953;SDS011;3516;47.980;8.808;2023-03-01T14:36:30;24.98;;;16.08;;
6953;SDS011;3516;47.980;8.808;2023-03-01T14:38:58;26.95;;;17.50;;
6953;SDS011;3516;47.980;8.808;2023-03-01T14:41:29;27.48;;;17.50;;
6953;SDS011;3516;47.980;8.808;2023-03-01T14:44:01;25.95;;;17.20;;
6953;SDS011;3516;47.980;8.808;2023-03-01T14:46:31;25.63;;;17.25;;
6953;SDS011;3516;47.980;8.808;2023-03-01T14:49:02;26.77;;;16.85;;
6953;SDS011;3516;47.980;8.808;2023-03-01T14:51:34;25.63;;;17.67;;
6953;SDS011;3516;47.980;8.808;2023-03-01T14:54:02;30.40;;;16.65;;
6953;SDS011;3516;47.980;8.808;2023-03-01T14:56:29;27.83;;;17.75;;
6953;SDS011;3516;47.980;8.808;2023-03-01T14:59:11;28.05;;;17.23;;
6953;SDS011;3516;47.980;8.808;2023-03-01T15:01:38;27.50;;;17.20;;
6953;SDS011;3516;47.980;8.808;2023-03-01T15:04:08;29.88;;;17.83;;
6953;SDS011;3516;47.980;8.808;2023-03-01T15:06:38;30.40;;;17.90;;
6953;SDS011;3516;47.980;8.808;2023-03-01T15:09:06;28.60;;;17.02;;
6953;SDS011;3516;47.980;8.808;2023-03-01T15:11:37;27.67;;;17.88;;
6953;SDS011;3516;47.980;8.808;2023-03-01T15:16:55;26.27;;;16.20;;
6953;SDS011;3516;47.980;8.808;2023-03-01T15:19:23;25.23;;;17.13;;
6953;SDS011;3516;47.980;8.808;2023-03-01T15:21:53;28.67;;;18.10;;
6953;SDS011;3516;47.980;8.808;2023-03-01T15:24:20;30.33;;;18.30;;
6953;SDS011;3516;47.980;8.808;2023-03-01T15:26:51;28.52;;;17.63;;
6953;SDS011;3516;47.980;8.808;2023-03-01T15:29:23;29.92;;;16.88;;
6953;SDS011;3516;47.980;8.808;2023-03-01T15:31:57;26.40;;;16.80;;
6953;SDS011;3516;47.980;8.808;2023-03-01T15:34:25;30.05;;;17.48;;
6953;SDS011;3516;47.980;8.808;2023-03-01T15:36:55;23.98;;;15.63;;
6953;SDS011;3516;47.980;8.808;2023-03-01T15:39:27;30.77;;;17.67;;
6953;SDS011;3516;47.980;8.808;2023-03-01T15:42:03;25.25;;;16.80;;
6953;SDS011;3516;47.980;8.808;2023-03-01T15:44:32;28.85;;;17.63;;
6953;SDS011;3516;47.980;8.808;2023-03-01T15:47:01;32.72;;;19.25;;
6953;SDS011;3516;47.980;8.808;2023-03-01T15:49:33;29.48;;;18.27;;
6953;SDS011;3516;47.980;8.808;2023-03-01T15:52:03;26.60;;;17.33;;
6953;SDS011;3516;47.980;8.808;2023-03-01T15:54:34;27.60;;;17.13;;
6953;SDS011;3516;47.980;8.808;2023-03-01T15:57:03;30.88;;;18.88;;
6953;SDS011;3516;47.980;8.808;2023-03-01T15:59:29;27.02;;;17.60;;
6953;SDS011;3516;47.980;8.808;2023-03-01T16:01:56;26.58;;;17.90;;
6953;SDS011;3516;47.980;8.808;2023-03-01T16:04:24;27.50;;;18.08;;
6953;SDS011;3516;47.980;8.808;2023-03-01T16:06:51;31.13;;;18.25;;
6953;SDS011;3516;47.980;8.808;2023-03-01T16:09:20;29.48;;;18.00;;
6953;SDS011;3516;47.980;8.808;2023-03-01T16:11:49;27.27;;;18.05;;
6953;SDS011;3516;47.980;8.808;2023-03-01T16:14:16;33.33;;;19.42;;
6953;SDS011;3516;47.980;8.808;2023-03-01T16:16:43;34.53;;;20.00;;
6953;SDS011;3516;47.980;8.808;2023-03-01T16:19:11;29.48;;;18.77;;
6953;SDS011;3516;47.980;8.808;2023-03-01T16:21:40;30.38;;;18.65;;
6953;SDS011;3516;47.980;8.808;2023-03-01T16:24:07;32.83;;;19.33;;
6953;SDS011;3516;47.980;8.808;2023-03-01T16:26:34;29.92;;;18.35;;
6953;SDS011;3516;47.980;8.808;2023-03-01T16:29:02;34.17;;;19.73;;
6953;SDS011;3516;47.980;8.808;2023-03-01T16:31:29;29.85;;;19.40;;
6953;SDS011;3516;47.980;8.808;2023-03-01T16:33:56;27.00;;;17.77;;
6953;SDS011;3516;47.980;8.808;2023-03-01T16:36:25;26.30;;;17.25;;
6953;SDS011;3516;47.980;8.808;2023-03-01T16:38:54;27.20;;;17.10;;
6953;SDS011;3516;47.980;8.808;2023-03-01T16:41:23;27.38;;;16.67;;
6953;SDS011;3516;47.980;8.808;2023-03-01T16:43:50;26.83;;;17.48;;
6953;SDS011;3516;47.980;8.808;2023-03-01T16:46:18;26.45;;;16.50;;
6953;SDS011;3516;47.980;8.808;2023-03-01T16:48:46;31.48;;;18.52;;
6953;SDS011;3516;47.980;8.808;2023-03-01T16:51:14;31.40;;;18.98;;
6953;SDS011;3516;47.980;8.808;2023-03-01T16:53:42;27.38;;;17.40;;
6953;SDS011;3516;47.980;8.808;2023-03-01T16:56:11;28.40;;;17.92;;
6953;SDS011;3516;47.980;8.808;2023-03-01T16:58:41;26.60;;;16.50;;
6953;SDS011;3516;47.980;8.808;2023-03-01T17:01:13;30.23;;;18.00;;
6953;SDS011;3516;47.980;8.808;2023-03-01T17:03:42;27.63;;;17.45;;
6953;SDS011;3516;47.980;8.808;2023-03-01T17:06:12;26.10;;;16.90;;
6953;SDS011;3516;47.980;8.808;2023-03-01T17:08:41;28.77;;;16.92;;
6953;SDS011;3516;47.980;8.808;2023-03-01T17:11:09;26.85;;;16.75;;
6953;SDS011;3516;47.980;8.808;2023-03-01T17:13:40;25.08;;;16.80;;
6953;SDS011;3516;47.980;8.808;2023-03-01T17:16:11;32.05;;;18.90;;
6953;SDS011;3516;47.980;8.808;2023-03-01T17:18:42;28.30;;;18.33;;
6953;SDS011;3516;47.980;8.808;2023-03-01T17:21:10;30.60;;;18.17;;
6953;SDS011;3516;47.980;8.808;2023-03-01T17:23:42;27.85;;;18.70;;
6953;SDS011;3516;47.980;8.808;2023-03-01T17:26:13;28.85;;;18.17;;
6953;SDS011;3516;47.980;8.808;2023-03-01T17:28:42;27.55;;;17.90;;
6953;SDS011;3516;47.980;8.808;2023-03-01T17:31:16;32.50;;;19.38;;
6953;SDS011;3516;47.980;8.808;2023-03-01T17:33:43;29.92;;;17.17;;
6953;SDS011;3516;47.980;8.808;2023-03-01T17:36:11;28.65;;;17.60;;
6953;SDS011;3516;47.980;8.808;2023-03-01T17:38:38;30.58;;;18.83;;
6953;SDS011;3516;47.980;8.808;2023-03-01T17:41:05;30.52;;;20.00;;
6953;SDS011;3516;47.980;8.808;2023-03-01T17:43:33;27.48;;;18.70;;
6953;SDS011;3516;47.980;8.808;2023-03-01T17:46:04;31.02;;;19.52;;
6953;SDS011;3516;47.980;8.808;2023-03-01T17:48:31;32.00;;;21.05;;
6953;SDS011;3516;47.980;8.808;2023-03-01T17:51:04;34.05;;;21.38;;
6953;SDS011;3516;47.980;8.808;2023-03-01T17:53:32;44.90;;;23.67;;
6953;SDS011;3516;47.980;8.808;2023-03-01T17:55:59;34.78;;;22.33;;
6953;SDS011;3516;47.980;8.808;2023-03-01T17:58:27;37.88;;;22.42;;
6953;SDS011;3516;47.980;8.808;2023-03-01T18:00:56;37.25;;;22.35;;
6953;SDS011;3516;47.980;8.808;2023-03-01T18:03:33;37.30;;;23.35;;
6953;SDS011;3516;47.980;8.808;2023-03-01T18:05:59;34.70;;;21.10;;
6953;SDS011;3516;47.980;8.808;2023-03-01T18:08:26;28.92;;;20.25;;
6953;SDS011;3516;47.980;8.808;2023-03-01T18:10:56;29.75;;;19.90;;
6953;SDS011;3516;47.980;8.808;2023-03-01T18:13:24;30.88;;;19.40;;
6953;SDS011;3516;47.980;8.808;2023-03-01T18:15:50;28.75;;;19.55;;
6953;SDS011;3516;47.980;8.808;2023-03-01T18:18:19;35.15;;;21.15;;
6953;SDS011;3516;47.980;8.808;2023-03-01T18:20:53;41.65;;;23.95;;
6953;SDS011;3516;47.980;8.808;2023-03-01T18:23:21;43.03;;;23.60;;
6953;SDS011;3516;47.980;8.808;2023-03-01T18:25:47;40.53;;;25.27;;
6953;SDS011;3516;47.980;8.808;2023-03-01T18:28:14;37.38;;;23.60;;
6953;SDS011;3516;47.980;8.808;2023-03-01T18:30:41;45.15;;;24.83;;
6953;SDS011;3516;47.980;8.808;2023-03-01T18:33:08;49.08;;;26.23;;
6953;SDS011;3516;47.980;8.808;2023-03-01T18:35:37;41.70;;;24.10;;
6953;SDS011;3516;47.980;8.808;2023-03-01T18:38:03;48.72;;;25.73;;
6953;SDS011;3516;47.980;8.808;2023-03-01T18:40:30;38.17;;;22.65;;
6953;SDS011;3516;47.980;8.808;2023-03-01T18:42:57;33.30;;;21.42;;
6953;SDS011;3516;47.980;8.808;2023-03-01T18:45:24;29.63;;;19.23;;
6953;SDS011;3516;47.980;8.808;2023-03-01T18:47:51;32.72;;;20.05;;
6953;SDS011;3516;47.980;8.808;2023-03-01T18:50:17;27.38;;;17.50;;
6953;SDS011;3516;47.980;8.808;2023-03-01T18:52:45;28.83;;;18.73;;
6953;SDS011;3516;47.980;8.808;2023-03-01T18:55:12;25.13;;;17.48;;
6953;SDS011;3516;47.980;8.808;2023-03-01T18:57:39;25.90;;;17.60;;
6953;SDS011;3516;47.980;8.808;2023-03-01T19:00:06;29.25;;;18.98;;
6953;SDS011;3516;47.980;8.808;2023-03-01T19:02:34;28.60;;;19.13;;
6953;SDS011;3516;47.980;8.808;2023-03-01T19:05:00;28.48;;;17.33;;
6953;SDS011;3516;47.980;8.808;2023-03-01T19:07:27;28.13;;;18.55;;
6953;SDS011;3516;47.980;8.808;2023-03-01T19:09:55;29.67;;;18.98;;
6953;SDS011;3516;47.980;8.808;2023-03-01T19:12:23;32.33;;;20.38;;
6953;SDS011;3516;47.980;8.808;2023-03-01T19:14:52;33.35;;;20.60;;
6953;SDS011;3516;47.980;8.808;2023-03-01T19:17:20;36.85;;;20.45;;
6953;SDS011;3516;47.980;8.808;2023-03-01T19:19:48;36.33;;;21.30;;
6953;SDS011;3516;47.980;8.808;2023-03-01T19:22:15;33.42;;;20.55;;
6953;SDS011;3516;47.980;8.808;2023-03-01T19:24:42;31.38;;;19.15;;
6953;SDS011;3516;47.980;8.808;2023-03-01T19:27:10;33.95;;;21.70;;
6953;SDS011;3516;47.980;8.808;2023-03-01T19:29:37;33.22;;;20.60;;
6953;SDS011;3516;47.980;8.808;2023-03-01T19:32:04;33.15;;;19.48;;
6953;SDS011;3516;47.980;8.808;2023-03-01T19:34:31;38.50;;;22.00;;
6953;SDS011;3516;47.980;8.808;2023-03-01T19:36:58;31.02;;;20.55;;
6953;SDS011;3516;47.980;8.808;2023-03-01T19:39:24;32.70;;;19.35;;
6953;SDS011;3516;47.980;8.808;2023-03-01T19:41:51;36.67;;;21.98;;
6953;SDS011;3516;47.980;8.808;2023-03-01T19:44:19;32.22;;;20.50;;
6953;SDS011;3516;47.980;8.808;2023-03-01T19:46:49;34.47;;;21.27;;
6953;SDS011;3516;47.980;8.808;2023-03-01T19:49:16;32.70;;;20.98;;
6953;SDS011;3516;47.980;8.808;2023-03-01T19:51:43;34.83;;;20.33;;
6953;SDS011;3516;47.980;8.808;2023-03-01T19:54:10;33.13;;;20.27;;
6953;SDS011;3516;47.980;8.808;2023-03-01T19:56:38;29.20;;;18.65;;
6953;SDS011;3516;47.980;8.808;2023-03-01T19:59:05;28.55;;;19.70;;
6953;SDS011;3516;47.980;8.808;2023-03-01T20:01:33;32.08;;;18.58;;
6953;SDS011;3516;47.980;8.808;2023-03-01T20:04:02;26.13;;;17.48;;
6953;SDS011;3516;47.980;8.808;2023-03-01T20:06:29;29.27;;;18.42;;
6953;SDS011;3516;47.980;8.808;2023-03-01T20:08:56;29.30;;;18.60;;
6953;SDS011;3516;47.980;8.808;2023-03-01T20:11:23;30.58;;;19.98;;
6953;SDS011;3516;47.980;8.808;2023-03-01T20:13:50;26.23;;;17.67;;
6953;SDS011;3516;47.980;8.808;2023-03-01T20:16:17;29.90;;;18.73;;
6953;SDS011;3516;47.980;8.808;2023-03-01T20:18:45;26.42;;;17.92;;
6953;SDS011;3516;47.980;8.808;2023-03-01T20:21:12;29.48;;;18.73;;